sensor_id;sensor_type;location;lat;lon;timestamp;pressure;altitude;pressure_sealevel;temperature;humidity
6680;BME280;3376;42.664;23.346;2022-10-31T00:00:47;94933.06;;;15.15;59.74
6680;BME280;3376;42.664;23.346;2022-10-31T00:03:14;95011.88;;;15.66;59.95
6680;BME280;3376;42.664;23.346;2022-10-31T00:05:41;94989.94;;;15.61;60.23
6680;BME280;3376;42.664;23.346;2022-10-31T00:08:08;95005.84;;;15.66;60.57
6680;BME280;3376;42.664;23.346;2022-10-31T00:10:37;94995.56;;;15.58;61.59
6680;BME280;3376;42.664;23.346;2022-10-31T00:13:04;94992.16;;;15.57;60.87
6680;BME280;3376;42.664;23.346;2022-10-31T00:15:32;94997.59;;;15.62;61.08
6680;BME280;3376;42.664;23.346;2022-10-31T00:18:00;94960.16;;;15.49;60.93
6680;BME280;3376;42.664;23.346;2022-10-31T00:20:27;95001.22;;;15.68;61.59
6680;BME280;3376;42.664;23.346;2022-10-31T00:22:57;94970.22;;;15.52;61.41
6680;BME280;3376;42.664;23.346;2022-10-31T00:25:25;95002.06;;;15.75;61.30
6680;BME280;3376;42.664;23.346;2022-10-31T00:27:52;95003.66;;;15.76;61.52
6680;BME280;3376;42.664;23.346;2022-10-31T00:30:18;94999.69;;;15.80;61.21
6680;BME280;3376;42.664;23.346;2022-10-31T00:32:45;95003.69;;;15.82;61.21
6680;BME280;3376;42.664;23.346;2022-10-31T00:35:13;95002.06;;;15.75;61.73
6680;BME280;3376;42.664;23.346;2022-10-31T00:37:40;94999.25;;;15.70;62.38
6680;BME280;3376;42.664;23.346;2022-10-31T00:40:08;95006.50;;;15.81;61.86
6680;BME280;3376;42.664;23.346;2022-10-31T00:42:35;95002.50;;;15.78;61.42
6680;BME280;3376;42.664;23.346;2022-10-31T00:45:02;94992.78;;;15.66;62.14
6680;BME280;3376;42.664;23.346;2022-10-31T00:47:29;94993.94;;;15.57;62.83
6680;BME280;3376;42.664;23.346;2022-10-31T00:49:56;95000.19;;;15.56;62.75
6680;BME280;3376;42.664;23.346;2022-10-31T00:52:24;94966.06;;;15.29;62.59
6680;BME280;3376;42.664;23.346;2022-10-31T00:54:51;94998.38;;;15.56;62.73
6680;BME280;3376;42.664;23.346;2022-10-31T00:57:17;94998.78;;;15.60;62.77
6680;BME280;3376;42.664;23.346;2022-10-31T00:59:44;95008.00;;;15.56;62.72
6680;BME280;3376;42.664;23.346;2022-10-31T01:02:11;94998.78;;;15.60;62.59
6680;BME280;3376;42.664;23.346;2022-10-31T01:04:38;94993.09;;;15.50;63.19
6680;BME280;3376;42.664;23.346;2022-10-31T01:07:04;94993.69;;;15.45;62.95
6680;BME280;3376;42.664;23.346;2022-10-31T01:09:32;95004.56;;;15.49;63.40
6680;BME280;3376;42.664;23.346;2022-10-31T01:11:59;94983.34;;;15.30;64.35
6680;BME280;3376;42.664;23.346;2022-10-31T01:14:26;95002.72;;;15.43;63.67
6680;BME280;3376;42.664;23.346;2022-10-31T01:16:53;95009.94;;;15.41;63.51
6680;BME280;3376;42.664;23.346;2022-10-31T01:19:19;95009.50;;;15.37;63.61
6680;BME280;3376;42.664;23.346;2022-10-31T01:21:46;95015.88;;;15.34;64.12
6680;BME280;3376;42.664;23.346;2022-10-31T01:24:13;95016.66;;;15.28;64.22
6680;BME280;3376;42.664;23.346;2022-10-31T01:26:41;94993.28;;;15.14;64.75
6680;BME280;3376;42.664;23.346;2022-10-31T01:29:08;95011.59;;;15.20;64.88
6680;BME280;3376;42.664;23.346;2022-10-31T01:31:37;95014.19;;;15.20;64.54
6680;BME280;3376;42.664;23.346;2022-10-31T01:34:04;94988.22;;;15.06;64.95
6680;BME280;3376;42.664;23.346;2022-10-31T01:36:33;95020.03;;;15.22;65.22
6680;BME280;3376;42.664;23.346;2022-10-31T01:39:04;95026.50;;;15.26;65.33
6680;BME280;3376;42.664;23.346;2022-10-31T01:41:33;95025.41;;;15.42;65.38
6680;BME280;3376;42.664;23.346;2022-10-31T01:44:03;95020.81;;;15.44;64.52
6680;BME280;3376;42.664;23.346;2022-10-31T01:46:52;95024.44;;;15.50;64.63
6680;BME280;3376;42.664;23.346;2022-10-31T01:49:23;95024.16;;;15.38;64.47
6680;BME280;3376;42.664;23.346;2022-10-31T01:51:55;95029.50;;;15.23;65.08
6680;BME280;3376;42.664;23.346;2022-10-31T01:54:28;95030.63;;;15.14;65.51
6680;BME280;3376;42.664;23.346;2022-10-31T01:56:58;95023.91;;;14.99;66.02
6680;BME280;3376;42.664;23.346;2022-10-31T01:59:29;95027.31;;;14.99;66.47
6680;BME280;3376;42.664;23.346;2022-10-31T02:01:57;94995.56;;;14.68;66.89
6680;BME280;3376;42.664;23.346;2022-10-31T02:04:25;95010.69;;;14.79;67.63
6680;BME280;3376;42.664;23.346;2022-10-31T02:06:55;95011.84;;;14.70;67.83
6680;BME280;3376;42.664;23.346;2022-10-31T02:09:25;94985.41;;;14.52;68.10
6680;BME280;3376;42.664;23.346;2022-10-31T02:11:55;95013.81;;;14.68;68.40
6680;BME280;3376;42.664;23.346;2022-10-31T02:14:24;95012.31;;;14.80;67.58
6680;BME280;3376;42.664;23.346;2022-10-31T02:16:53;94999.25;;;14.74;67.90
6680;BME280;3376;42.664;23.346;2022-10-31T02:19:28;95010.69;;;14.79;68.37
6680;BME280;3376;42.664;23.346;2022-10-31T02:22:02;95008.69;;;14.81;68.52
6680;BME280;3376;42.664;23.346;2022-10-31T02:24:45;95014.69;;;14.75;68.56
6680;BME280;3376;42.664;23.346;2022-10-31T02:27:31;95014.44;;;14.70;68.23
6680;BME280;3376;42.664;23.346;2022-10-31T02:30:07;94966.19;;;14.32;68.96
6680;BME280;3376;42.664;23.346;2022-10-31T02:32:47;95035.44;;;14.62;69.50
6680;BME280;3376;42.664;23.346;2022-10-31T02:35:26;95029.00;;;14.58;69.51
6680;BME280;3376;42.664;23.346;2022-10-31T02:37:59;95039.19;;;14.53;70.17
6680;BME280;3376;42.664;23.346;2022-10-31T02:40:33;95041.16;;;14.51;70.21
6680;BME280;3376;42.664;23.346;2022-10-31T02:43:06;95040.78;;;14.54;70.16
6680;BME280;3376;42.664;23.346;2022-10-31T02:45:40;95051.06;;;14.62;69.80
6680;BME280;3376;42.664;23.346;2022-10-31T02:48:12;95049.84;;;14.58;70.23
6680;BME280;3376;42.664;23.346;2022-10-31T02:50:43;95030.88;;;14.43;70.48
6680;BME280;3376;42.664;23.346;2022-10-31T02:53:14;95048.59;;;14.54;70.21
6680;BME280;3376;42.664;23.346;2022-10-31T02:55:51;95050.19;;;14.55;69.86
6680;BME280;3376;42.664;23.346;2022-10-31T02:58:22;95039.66;;;14.42;70.46
6680;BME280;3376;42.664;23.346;2022-10-31T03:06:56;95047.72;;;14.47;71.20
6680;BME280;3376;42.664;23.346;2022-10-31T03:09:31;95058.97;;;14.48;71.49
6680;BME280;3376;42.664;23.346;2022-10-31T03:12:06;95009.28;;;14.13;71.85
6680;BME280;3376;42.664;23.346;2022-10-31T03:14:40;95053.88;;;14.40;72.09
6680;BME280;3376;42.664;23.346;2022-10-31T03:17:11;95058.28;;;14.39;72.24
6680;BME280;3376;42.664;23.346;2022-10-31T03:19:44;95051.72;;;14.43;72.63
6680;BME280;3376;42.664;23.346;2022-10-31T03:22:16;95019.69;;;14.13;72.67
6680;BME280;3376;42.664;23.346;2022-10-31T03:24:43;95014.94;;;14.17;72.72
6680;BME280;3376;42.664;23.346;2022-10-31T03:27:14;95061.50;;;14.41;72.71
6680;BME280;3376;42.664;23.346;2022-10-31T03:29:44;95003.56;;;14.03;73.01
6680;BME280;3376;42.664;23.346;2022-10-31T03:32:14;95055.88;;;14.38;72.88
6680;BME280;3376;42.664;23.346;2022-10-31T03:34:44;95046.25;;;14.24;73.15
6680;BME280;3376;42.664;23.346;2022-10-31T03:37:17;95064.03;;;14.35;73.35
6680;BME280;3376;42.664;23.346;2022-10-31T03:39:46;95067.66;;;14.34;73.55
6680;BME280;3376;42.664;23.346;2022-10-31T03:42:16;95067.72;;;14.40;73.48
6680;BME280;3376;42.664;23.346;2022-10-31T03:44:47;95015.66;;;14.11;73.01
6680;BME280;3376;42.664;23.346;2022-10-31T03:47:16;95076.28;;;14.55;72.60
6680;BME280;3376;42.664;23.346;2022-10-31T03:49:44;95069.47;;;14.54;72.73
6680;BME280;3376;42.664;23.346;2022-10-31T03:52:15;95079.75;;;14.41;73.84
6680;BME280;3376;42.664;23.346;2022-10-31T03:54:48;95075.66;;;14.32;74.25
6680;BME280;3376;42.664;23.346;2022-10-31T03:57:22;95075.59;;;14.26;74.36
6680;BME280;3376;42.664;23.346;2022-10-31T03:59:54;95076.09;;;14.21;74.98
6680;BME280;3376;42.664;23.346;2022-10-31T04:02:30;95086.44;;;14.14;75.11
6680;BME280;3376;42.664;23.346;2022-10-31T04:05:00;95089.78;;;14.08;75.52
6680;BME280;3376;42.664;23.346;2022-10-31T04:07:30;95056.94;;;13.78;76.08
6680;BME280;3376;42.664;23.346;2022-10-31T04:10:00;95090.44;;;13.96;76.63
6680;BME280;3376;42.664;23.346;2022-10-31T04:12:29;95048.25;;;13.71;76.74
6680;BME280;3376;42.664;23.346;2022-10-31T04:14:59;95091.50;;;13.87;77.37
6680;BME280;3376;42.664;23.346;2022-10-31T04:17:31;95098.28;;;13.81;77.70
6680;BME280;3376;42.664;23.346;2022-10-31T04:20:00;95105.09;;;13.82;77.48
6680;BME280;3376;42.664;23.346;2022-10-31T04:22:27;95093.41;;;13.78;78.08
6680;BME280;3376;42.664;23.346;2022-10-31T04:24:54;95078.59;;;13.79;77.69
6680;BME280;3376;42.664;23.346;2022-10-31T04:27:21;95090.63;;;13.94;77.50
6680;BME280;3376;42.664;23.346;2022-10-31T04:29:48;95095.28;;;13.99;77.07
6680;BME280;3376;42.664;23.346;2022-10-31T04:32:14;95093.19;;;14.09;76.42
6680;BME280;3376;42.664;23.346;2022-10-31T04:34:41;95099.47;;;14.14;76.79
6680;BME280;3376;42.664;23.346;2022-10-31T04:37:09;95095.28;;;13.99;76.99
6680;BME280;3376;42.664;23.346;2022-10-31T04:39:36;95098.00;;;13.91;77.50
6680;BME280;3376;42.664;23.346;2022-10-31T04:42:03;95098.34;;;13.88;78.02
6680;BME280;3376;42.664;23.346;2022-10-31T04:44:29;95096.28;;;13.83;78.48
6680;BME280;3376;42.664;23.346;2022-10-31T04:46:56;95098.81;;;13.77;78.82
6680;BME280;3376;42.664;23.346;2022-10-31T04:49:23;95100.16;;;13.73;78.95
6680;BME280;3376;42.664;23.346;2022-10-31T04:51:50;95105.72;;;13.70;79.48
6680;BME280;3376;42.664;23.346;2022-10-31T04:54:18;95107.34;;;13.71;80.11
6680;BME280;3376;42.664;23.346;2022-10-31T04:56:44;95110.22;;;13.76;80.29
6680;BME280;3376;42.664;23.346;2022-10-31T04:59:11;95105.38;;;13.73;80.53
6680;BME280;3376;42.664;23.346;2022-10-31T05:01:38;95112.19;;;13.74;80.53
6680;BME280;3376;42.664;23.346;2022-10-31T05:04:04;95121.97;;;13.86;79.34
6680;BME280;3376;42.664;23.346;2022-10-31T05:06:31;95111.53;;;14.01;78.15
6680;BME280;3376;42.664;23.346;2022-10-31T05:08:58;95095.28;;;13.99;77.66
6680;BME280;3376;42.664;23.346;2022-10-31T05:11:26;95106.31;;;14.01;77.81
6680;BME280;3376;42.664;23.346;2022-10-31T05:13:53;95107.66;;;13.97;78.35
6680;BME280;3376;42.664;23.346;2022-10-31T05:16:19;95101.84;;;13.80;79.27
6680;BME280;3376;42.664;23.346;2022-10-31T05:18:46;95112.09;;;13.67;80.44
6680;BME280;3376;42.664;23.346;2022-10-31T05:21:13;95136.25;;;13.76;80.65
6680;BME280;3376;42.664;23.346;2022-10-31T05:23:39;95112.19;;;13.74;80.92
6680;BME280;3376;42.664;23.346;2022-10-31T05:26:06;95138.94;;;13.82;80.87
6680;BME280;3376;42.664;23.346;2022-10-31T05:28:34;95141.84;;;13.73;81.74
6680;BME280;3376;42.664;23.346;2022-10-31T05:31:01;95135.53;;;13.67;82.06
6680;BME280;3376;42.664;23.346;2022-10-31T05:33:28;95146.75;;;13.82;81.49
6680;BME280;3376;42.664;23.346;2022-10-31T05:35:54;95147.22;;;13.86;81.04
6680;BME280;3376;42.664;23.346;2022-10-31T05:38:21;95140.94;;;13.95;80.46
6680;BME280;3376;42.664;23.346;2022-10-31T05:40:48;95141.63;;;14.03;79.96
6680;BME280;3376;42.664;23.346;2022-10-31T05:43:15;95108.50;;;13.83;79.96
6680;BME280;3376;42.664;23.346;2022-10-31T05:45:43;95145.41;;;14.01;80.17
6680;BME280;3376;42.664;23.346;2022-10-31T05:48:12;95136.78;;;13.86;80.80
6680;BME280;3376;42.664;23.346;2022-10-31T05:50:39;95151.59;;;13.85;81.12
6680;BME280;3376;42.664;23.346;2022-10-31T05:53:07;95147.41;;;13.84;81.25
6680;BME280;3376;42.664;23.346;2022-10-31T05:55:34;95136.34;;;13.82;81.00
6680;BME280;3376;42.664;23.346;2022-10-31T05:58:00;95152.69;;;13.91;81.14
6680;BME280;3376;42.664;23.346;2022-10-31T06:00:27;95149.09;;;13.92;81.92
6680;BME280;3376;42.664;23.346;2022-10-31T06:02:59;95146.44;;;14.21;81.60
6680;BME280;3376;42.664;23.346;2022-10-31T06:05:26;95162.28;;;14.70;79.54
6680;BME280;3376;42.664;23.346;2022-10-31T06:07:53;95173.94;;;15.09;76.96
6680;BME280;3376;42.664;23.346;2022-10-31T06:10:19;95153.16;;;15.71;81.39
6680;BME280;3376;42.664;23.346;2022-10-31T06:12:46;95135.00;;;16.38;71.32
6680;BME280;3376;42.664;23.346;2022-10-31T06:15:13;95176.56;;;17.60;67.52
6680;BME280;3376;42.664;23.346;2022-10-31T06:17:40;95178.19;;;18.57;63.42
6680;BME280;3376;42.664;23.346;2022-10-31T06:20:09;95178.25;;;19.57;58.79
6680;BME280;3376;42.664;23.346;2022-10-31T06:22:36;95183.72;;;20.59;56.38
6680;BME280;3376;42.664;23.346;2022-10-31T06:25:03;95173.03;;;21.20;52.57
6680;BME280;3376;42.664;23.346;2022-10-31T06:27:30;95183.38;;;21.97;50.42
6680;BME280;3376;42.664;23.346;2022-10-31T06:29:57;95192.50;;;22.53;47.37
6680;BME280;3376;42.664;23.346;2022-10-31T06:32:23;95163.16;;;22.89;46.44
6680;BME280;3376;42.664;23.346;2022-10-31T06:34:50;95199.72;;;23.81;43.10
6680;BME280;3376;42.664;23.346;2022-10-31T06:37:18;95177.06;;;24.18;41.68
6680;BME280;3376;42.664;23.346;2022-10-31T06:39:45;95211.72;;;24.72;40.62
6680;BME280;3376;42.664;23.346;2022-10-31T06:42:12;95152.03;;;24.48;41.09
6680;BME280;3376;42.664;23.346;2022-10-31T06:44:38;95222.31;;;25.15;39.42
6680;BME280;3376;42.664;23.346;2022-10-31T06:47:05;95199.22;;;25.37;39.04
6680;BME280;3376;42.664;23.346;2022-10-31T06:49:34;95223.84;;;25.86;38.35
6680;BME280;3376;42.664;23.346;2022-10-31T06:52:02;95220.81;;;26.35;37.12
6680;BME280;3376;42.664;23.346;2022-10-31T06:54:30;95214.81;;;27.07;35.57
6680;BME280;3376;42.664;23.346;2022-10-31T06:56:57;95206.25;;;26.95;35.30
6680;BME280;3376;42.664;23.346;2022-10-31T06:59:24;95221.31;;;27.36;34.24
6680;BME280;3376;42.664;23.346;2022-10-31T07:01:50;95223.16;;;26.69;35.95
6680;BME280;3376;42.664;23.346;2022-10-31T07:04:17;95220.59;;;26.84;35.53
6680;BME280;3376;42.664;23.346;2022-10-31T07:06:44;95223.63;;;27.12;35.12
6680;BME280;3376;42.664;23.346;2022-10-31T07:09:11;95216.53;;;27.38;34.17
6680;BME280;3376;42.664;23.346;2022-10-31T07:11:39;95216.88;;;27.76;33.75
6680;BME280;3376;42.664;23.346;2022-10-31T07:14:06;95207.94;;;27.16;34.31
6680;BME280;3376;42.664;23.346;2022-10-31T07:16:32;95220.97;;;27.17;34.58
6680;BME280;3376;42.664;23.346;2022-10-31T07:18:59;95214.94;;;27.37;34.07
6680;BME280;3376;42.664;23.346;2022-10-31T07:21:26;95212.88;;;27.59;33.45
6680;BME280;3376;42.664;23.346;2022-10-31T07:23:53;95208.09;;;27.66;33.65
6680;BME280;3376;42.664;23.346;2022-10-31T07:26:19;95207.03;;;27.87;33.47
6680;BME280;3376;42.664;23.346;2022-10-31T07:28:48;95191.88;;;28.03;33.16
6680;BME280;3376;42.664;23.346;2022-10-31T07:31:14;95200.66;;;28.33;32.56
6680;BME280;3376;42.664;23.346;2022-10-31T07:33:41;95134.03;;;28.08;32.28
6680;BME280;3376;42.664;23.346;2022-10-31T07:36:08;95199.50;;;28.84;31.86
6680;BME280;3376;42.664;23.346;2022-10-31T07:38:35;95202.19;;;28.69;32.10
6680;BME280;3376;42.664;23.346;2022-10-31T07:41:02;95200.03;;;28.71;32.45
6680;BME280;3376;42.664;23.346;2022-10-31T07:43:28;95202.78;;;28.36;32.86
6680;BME280;3376;42.664;23.346;2022-10-31T07:45:56;95201.75;;;27.92;34.31
6680;BME280;3376;42.664;23.346;2022-10-31T07:48:23;95188.88;;;27.34;34.40
6680;BME280;3376;42.664;23.346;2022-10-31T07:50:50;95179.75;;;27.15;34.81
6680;BME280;3376;42.664;23.346;2022-10-31T07:53:17;95203.81;;;26.41;36.61
6680;BME280;3376;42.664;23.346;2022-10-31T07:55:43;95208.19;;;26.21;36.81
6680;BME280;3376;42.664;23.346;2022-10-31T07:58:11;95171.81;;;26.21;38.22
6680;BME280;3376;42.664;23.346;2022-10-31T08:00:39;95196.72;;;26.57;35.78
6680;BME280;3376;42.664;23.346;2022-10-31T08:03:09;95213.75;;;27.03;35.46
6680;BME280;3376;42.664;23.346;2022-10-31T08:05:37;95211.78;;;27.60;34.39
6680;BME280;3376;42.664;23.346;2022-10-31T08:08:05;95207.81;;;27.52;34.35
6680;BME280;3376;42.664;23.346;2022-10-31T08:10:32;95218.19;;;27.74;34.33
6680;BME280;3376;42.664;23.346;2022-10-31T08:13:01;95198.78;;;27.84;33.72
6680;BME280;3376;42.664;23.346;2022-10-31T08:15:29;95204.69;;;28.01;34.01
6680;BME280;3376;42.664;23.346;2022-10-31T08:17:56;95208.66;;;28.33;33.49
6680;BME280;3376;42.664;23.346;2022-10-31T08:20:24;95203.31;;;28.23;32.89
6680;BME280;3376;42.664;23.346;2022-10-31T08:22:55;95207.81;;;28.48;33.00
6680;BME280;3376;42.664;23.346;2022-10-31T08:25:22;95208.75;;;29.02;31.89
6680;BME280;3376;42.664;23.346;2022-10-31T08:27:50;95173.50;;;29.05;31.31
6680;BME280;3376;42.664;23.346;2022-10-31T08:30:18;95213.84;;;29.52;32.14
6680;BME280;3376;42.664;23.346;2022-10-31T08:32:45;95215.44;;;29.58;31.34
6680;BME280;3376;42.664;23.346;2022-10-31T08:35:12;95214.59;;;29.68;30.93
6680;BME280;3376;42.664;23.346;2022-10-31T08:37:41;95205.56;;;29.10;30.93
6680;BME280;3376;42.664;23.346;2022-10-31T08:40:08;95210.19;;;28.74;31.83
6680;BME280;3376;42.664;23.346;2022-10-31T08:42:36;95200.63;;;28.48;33.21
6680;BME280;3376;42.664;23.346;2022-10-31T08:45:03;95177.31;;;28.89;34.15
6680;BME280;3376;42.664;23.346;2022-10-31T08:47:30;95204.44;;;29.65;32.71
6680;BME280;3376;42.664;23.346;2022-10-31T08:49:57;95187.00;;;29.77;32.12
6680;BME280;3376;42.664;23.346;2022-10-31T08:52:24;95213.88;;;29.96;32.38
6680;BME280;3376;42.664;23.346;2022-10-31T08:54:52;95191.00;;;29.80;32.59
6680;BME280;3376;42.664;23.346;2022-10-31T08:57:19;95209.75;;;29.75;32.10
6680;BME280;3376;42.664;23.346;2022-10-31T08:59:46;95205.81;;;29.57;32.39
6680;BME280;3376;42.664;23.346;2022-10-31T09:02:13;95201.69;;;29.31;32.56
6680;BME280;3376;42.664;23.346;2022-10-31T09:04:40;95203.38;;;29.17;33.66
6680;BME280;3376;42.664;23.346;2022-10-31T09:07:06;95203.03;;;29.34;33.43
6680;BME280;3376;42.664;23.346;2022-10-31T09:09:33;95205.81;;;29.04;34.03
6680;BME280;3376;42.664;23.346;2022-10-31T09:12:01;95194.63;;;29.02;33.07
6680;BME280;3376;42.664;23.346;2022-10-31T09:14:28;95192.56;;;29.42;34.51
6680;BME280;3376;42.664;23.346;2022-10-31T09:16:55;95199.09;;;29.65;32.23
6680;BME280;3376;42.664;23.346;2022-10-31T09:19:21;95186.53;;;30.04;32.48
6680;BME280;3376;42.664;23.346;2022-10-31T09:21:52;95170.09;;;29.87;31.76
6680;BME280;3376;42.664;23.346;2022-10-31T09:24:19;95107.00;;;29.19;32.32
6680;BME280;3376;42.664;23.346;2022-10-31T09:26:45;95187.41;;;29.56;32.56
6680;BME280;3376;42.664;23.346;2022-10-31T09:29:13;95198.00;;;29.71;33.72
6680;BME280;3376;42.664;23.346;2022-10-31T09:31:40;95197.47;;;29.64;32.09
6680;BME280;3376;42.664;23.346;2022-10-31T09:34:07;95197.03;;;29.95;32.48
6680;BME280;3376;42.664;23.346;2022-10-31T09:36:34;95193.84;;;30.27;32.32
6680;BME280;3376;42.664;23.346;2022-10-31T09:39:00;95199.41;;;30.59;30.58
6680;BME280;3376;42.664;23.346;2022-10-31T09:41:44;95199.59;;;30.44;31.94
6680;BME280;3376;42.664;23.346;2022-10-31T09:44:22;95183.56;;;30.06;32.34
6680;BME280;3376;42.664;23.346;2022-10-31T09:46:56;95175.13;;;29.93;32.09
6680;BME280;3376;42.664;23.346;2022-10-31T09:49:38;95198.81;;;30.05;31.08
6680;BME280;3376;42.664;23.346;2022-10-31T09:52:12;95194.84;;;30.60;33.23
6680;BME280;3376;42.664;23.346;2022-10-31T09:54:43;95157.06;;;30.66;31.17
6680;BME280;3376;42.664;23.346;2022-10-31T09:57:13;95200.81;;;31.04;30.62
6680;BME280;3376;42.664;23.346;2022-10-31T09:59:44;95181.63;;;31.39;29.78
6680;BME280;3376;42.664;23.346;2022-10-31T10:02:16;95182.53;;;31.30;31.54
6680;BME280;3376;42.664;23.346;2022-10-31T10:04:47;95177.28;;;31.43;30.75
6680;BME280;3376;42.664;23.346;2022-10-31T10:07:21;95171.50;;;31.55;29.83
6680;BME280;3376;42.664;23.346;2022-10-31T10:09:49;95114.38;;;31.41;29.62
6680;BME280;3376;42.664;23.346;2022-10-31T10:12:20;95157.09;;;31.88;29.34
6680;BME280;3376;42.664;23.346;2022-10-31T10:17:53;95155.59;;;32.28;28.60
6680;BME280;3376;42.664;23.346;2022-10-31T10:20:31;95043.56;;;31.47;27.41
6680;BME280;3376;42.664;23.346;2022-10-31T10:23:18;95154.66;;;31.68;28.57
6680;BME280;3376;42.664;23.346;2022-10-31T10:25:52;95035.56;;;30.67;28.33
6680;BME280;3376;42.664;23.346;2022-10-31T10:28:26;95127.47;;;30.81;29.48
6680;BME280;3376;42.664;23.346;2022-10-31T10:30:59;95142.97;;;30.84;28.70
6680;BME280;3376;42.664;23.346;2022-10-31T10:33:30;95146.59;;;30.70;28.92
6680;BME280;3376;42.664;23.346;2022-10-31T10:36:00;95121.13;;;30.72;30.05
6680;BME280;3376;42.664;23.346;2022-10-31T10:38:31;95117.38;;;30.97;29.30
6680;BME280;3376;42.664;23.346;2022-10-31T10:41:04;94998.56;;;30.56;28.99
6680;BME280;3376;42.664;23.346;2022-10-31T10:43:34;95132.66;;;31.71;28.99
6680;BME280;3376;42.664;23.346;2022-10-31T10:46:16;95130.97;;;31.75;28.63
6680;BME280;3376;42.664;23.346;2022-10-31T10:49:08;95125.63;;;31.00;28.70
6680;BME280;3376;42.664;23.346;2022-10-31T10:51:39;95129.63;;;30.79;28.69
6680;BME280;3376;42.664;23.346;2022-10-31T10:54:15;95124.03;;;30.99;28.50
6680;BME280;3376;42.664;23.346;2022-10-31T10:56:56;95119.34;;;31.10;27.57
6680;BME280;3376;42.664;23.346;2022-10-31T10:59:25;95119.03;;;31.30;27.85
6680;BME280;3376;42.664;23.346;2022-10-31T11:01:53;94982.31;;;30.29;28.36
6680;BME280;3376;42.664;23.346;2022-10-31T11:04:31;95107.50;;;31.35;27.45
6680;BME280;3376;42.664;23.346;2022-10-31T11:07:00;95127.94;;;31.26;27.26
6680;BME280;3376;42.664;23.346;2022-10-31T11:09:27;94969.72;;;30.29;27.51
6680;BME280;3376;42.664;23.346;2022-10-31T11:11:54;95098.81;;;31.43;26.75
6680;BME280;3376;42.664;23.346;2022-10-31T11:14:23;95114.47;;;31.68;26.29
6680;BME280;3376;42.664;23.346;2022-10-31T11:16:53;95101.31;;;31.53;26.81
6680;BME280;3376;42.664;23.346;2022-10-31T11:19:23;95113.47;;;31.64;27.48
6680;BME280;3376;42.664;23.346;2022-10-31T11:21:52;95082.44;;;31.44;27.95
6680;BME280;3376;42.664;23.346;2022-10-31T11:24:21;95095.06;;;31.76;26.87
6680;BME280;3376;42.664;23.346;2022-10-31T11:26:51;95103.69;;;31.73;26.73
6680;BME280;3376;42.664;23.346;2022-10-31T11:29:21;95091.78;;;31.79;26.27
6680;BME280;3376;42.664;23.346;2022-10-31T11:31:53;95086.78;;;31.91;25.98
6680;BME280;3376;42.664;23.346;2022-10-31T11:34:28;95070.50;;;31.87;26.46
6680;BME280;3376;42.664;23.346;2022-10-31T11:37:01;95093.59;;;32.15;26.12
6680;BME280;3376;42.664;23.346;2022-10-31T11:39:29;95093.78;;;32.19;26.13
6680;BME280;3376;42.664;23.346;2022-10-31T11:42:00;95087.00;;;31.94;26.74
6680;BME280;3376;42.664;23.346;2022-10-31T11:44:29;95077.19;;;31.85;26.66
6680;BME280;3376;42.664;23.346;2022-10-31T11:46:59;95085.03;;;31.31;27.11
6680;BME280;3376;42.664;23.346;2022-10-31T11:49:47;95083.44;;;30.92;28.06
6680;BME280;3376;42.664;23.346;2022-10-31T11:52:18;94940.75;;;29.94;27.69
6680;BME280;3376;42.664;23.346;2022-10-31T11:54:48;95075.91;;;30.52;27.90
6680;BME280;3376;42.664;23.346;2022-10-31T11:57:25;95075.91;;;30.29;27.88
6680;BME280;3376;42.664;23.346;2022-10-31T11:59:53;95038.41;;;30.34;27.90
6680;BME280;3376;42.664;23.346;2022-10-31T12:02:21;95069.13;;;30.36;27.99
6680;BME280;3376;42.664;23.346;2022-10-31T12:04:55;95067.78;;;30.10;28.26
6680;BME280;3376;42.664;23.346;2022-10-31T12:07:24;95063.34;;;30.00;28.77
6680;BME280;3376;42.664;23.346;2022-10-31T12:09:51;95060.88;;;29.80;28.87
6680;BME280;3376;42.664;23.346;2022-10-31T12:12:35;95023.53;;;29.42;29.66
6680;BME280;3376;42.664;23.346;2022-10-31T12:15:19;95066.19;;;29.85;28.47
6680;BME280;3376;42.664;23.346;2022-10-31T12:17:54;95058.19;;;29.47;28.94
6680;BME280;3376;42.664;23.346;2022-10-31T12:20:31;95059.09;;;28.88;29.79
6680;BME280;3376;42.664;23.346;2022-10-31T12:23:06;95059.75;;;28.70;30.64
6680;BME280;3376;42.664;23.346;2022-10-31T12:25:41;95053.34;;;28.71;30.15
6680;BME280;3376;42.664;23.346;2022-10-31T12:28:33;95056.56;;;28.68;30.42
6680;BME280;3376;42.664;23.346;2022-10-31T12:31:16;95056.00;;;28.71;30.63
6680;BME280;3376;42.664;23.346;2022-10-31T12:33:58;95060.84;;;29.13;30.14
6680;BME280;3376;42.664;23.346;2022-10-31T12:36:41;95053.81;;;29.27;30.08
6680;BME280;3376;42.664;23.346;2022-10-31T12:39:21;95057.28;;;29.28;29.90
6680;BME280;3376;42.664;23.346;2022-10-31T12:41:52;95049.22;;;29.38;29.20
6680;BME280;3376;42.664;23.346;2022-10-31T12:44:35;95048.06;;;29.44;29.64
6680;BME280;3376;42.664;23.346;2022-10-31T12:47:22;95048.16;;;29.67;29.40
6680;BME280;3376;42.664;23.346;2022-10-31T12:49:59;95047.66;;;29.94;28.85
6680;BME280;3376;42.664;23.346;2022-10-31T12:52:40;95051.84;;;30.00;28.55
6680;BME280;3376;42.664;23.346;2022-10-31T12:55:20;95055.16;;;29.92;28.95
6680;BME280;3376;42.664;23.346;2022-10-31T12:57:54;95053.41;;;30.06;29.38
6680;BME280;3376;42.664;23.346;2022-10-31T13:00:24;95045.16;;;30.02;28.64
6680;BME280;3376;42.664;23.346;2022-10-31T13:02:56;95043.00;;;30.05;28.63
6680;BME280;3376;42.664;23.346;2022-10-31T13:05:27;95011.34;;;29.88;28.76
6680;BME280;3376;42.664;23.346;2022-10-31T13:07:58;95055.56;;;30.04;28.68
6680;BME280;3376;42.664;23.346;2022-10-31T13:10:30;95057.78;;;29.97;28.57
6680;BME280;3376;42.664;23.346;2022-10-31T13:13:07;95042.66;;;29.87;29.06
6680;BME280;3376;42.664;23.346;2022-10-31T13:15:46;95047.13;;;29.92;28.68
6680;BME280;3376;42.664;23.346;2022-10-31T13:18:23;95058.44;;;29.84;28.65
6680;BME280;3376;42.664;23.346;2022-10-31T13:20:54;95057.72;;;30.02;28.95
6680;BME280;3376;42.664;23.346;2022-10-31T13:23:27;94904.97;;;29.14;28.82
6680;BME280;3376;42.664;23.346;2022-10-31T13:25:56;95042.19;;;30.04;28.39
6680;BME280;3376;42.664;23.346;2022-10-31T13:28:28;95062.34;;;30.20;28.20
6680;BME280;3376;42.664;23.346;2022-10-31T13:30:57;95040.63;;;30.03;28.65
6680;BME280;3376;42.664;23.346;2022-10-31T13:33:26;95021.81;;;29.84;28.55